createdAt,value
2018-02-25T00:01:09.924Z,39.20
2018-02-25T00:03:37.445Z,39.80
2018-02-25T00:06:05.722Z,39.20
2018-02-25T00:08:34.019Z,39.30
2018-02-25T00:11:01.551Z,39.20
2018-02-25T00:13:29.862Z,39.00
2018-02-25T00:15:57.415Z,39.00
2018-02-25T00:18:24.943Z,39.20
2018-02-25T00:20:53.225Z,39.10
2018-02-25T00:23:21.550Z,38.80
2018-02-25T00:25:49.111Z,38.80
2018-02-25T00:28:16.668Z,39.30
2018-02-25T00:30:44.251Z,39.00
2018-02-25T00:33:11.807Z,38.90
2018-02-25T00:35:39.388Z,38.90
2018-02-25T00:38:07.744Z,39.10
2018-02-25T00:40:35.269Z,39.10
2018-02-25T00:43:02.807Z,39.10
2018-02-25T00:45:30.340Z,39.00
2018-02-25T00:47:58.595Z,39.10
2018-02-25T00:50:26.081Z,39.10
2018-02-25T00:52:53.629Z,39.20
2018-02-25T00:55:21.895Z,39.70
2018-02-25T00:57:49.380Z,39.60
2018-02-25T01:00:16.909Z,39.60
2018-02-25T01:02:44.402Z,39.40
2018-02-25T01:05:11.905Z,39.70
2018-02-25T01:07:39.434Z,40.00
2018-02-25T01:10:06.927Z,39.70
2018-02-25T01:12:34.443Z,39.80
2018-02-25T01:15:02.029Z,39.80
2018-02-25T01:17:29.483Z,40.20
2018-02-25T01:19:57.002Z,40.00
2018-02-25T01:22:24.487Z,40.00
2018-02-25T01:24:52.290Z,40.20
2018-02-25T01:27:19.807Z,40.60
2018-02-25T01:29:47.400Z,39.90
2018-02-25T01:32:14.903Z,40.20
2018-02-25T01:34:42.401Z,41.10
2018-02-25T01:37:09.939Z,39.90
2018-02-25T01:39:37.439Z,39.70
2018-02-25T01:42:05.728Z,39.90
2018-02-25T01:44:34.033Z,39.90
2018-02-25T01:47:01.538Z,40.50
2018-02-25T01:49:29.015Z,39.80
2018-02-25T01:51:57.261Z,39.80
2018-02-25T01:54:24.736Z,39.80
2018-02-25T01:56:52.984Z,39.80
2018-02-25T01:59:20.473Z,39.80
2018-02-25T02:01:48.762Z,39.50
2018-02-25T02:04:16.275Z,39.40
2018-02-25T02:06:43.810Z,39.40
2018-02-25T02:09:11.306Z,39.50
2018-02-25T02:11:38.821Z,39.50
2018-02-25T02:14:06.339Z,39.50
2018-02-25T02:16:34.594Z,39.70
2018-02-25T02:19:02.083Z,39.70
2018-02-25T02:21:29.634Z,39.80
2018-02-25T02:23:57.136Z,40.00
2018-02-25T02:26:24.644Z,39.80
2018-02-25T02:28:52.925Z,39.50
2018-02-25T02:31:20.413Z,39.50
2018-02-25T02:33:47.966Z,39.50
2018-02-25T02:36:15.455Z,39.40
2018-02-25T02:38:42.982Z,39.60
2018-02-25T02:41:10.500Z,39.60
2018-02-25T02:43:38.777Z,39.60
2018-02-25T02:46:07.103Z,39.90
2018-02-25T02:48:34.631Z,39.60
2018-02-25T02:51:02.162Z,39.90
2018-02-25T02:53:30.443Z,40.00
2018-02-25T02:55:57.977Z,40.00
2018-02-25T02:58:25.508Z,40.00
2018-02-25T03:00:53.045Z,39.60
2018-02-25T03:03:20.527Z,40.00
2018-02-25T03:05:48.014Z,39.90
2018-02-25T03:08:15.494Z,40.00
2018-02-25T03:10:43.775Z,40.00
2018-02-25T03:13:11.279Z,40.00
2018-02-25T03:15:38.782Z,40.60
2018-02-25T03:18:07.060Z,40.40
2018-02-25T03:20:35.352Z,40.30
2018-02-25T03:23:05.593Z,40.20
2018-02-25T03:25:33.103Z,40.30
2018-02-25T03:28:01.412Z,40.10
2018-02-25T03:30:28.908Z,40.10
2018-02-25T03:32:56.390Z,40.30
2018-02-25T03:35:24.630Z,40.20
2018-02-25T03:37:52.122Z,40.10
2018-02-25T03:40:20.366Z,40.00
2018-02-25T03:42:47.903Z,40.00
2018-02-25T03:45:15.438Z,39.90
2018-02-25T03:47:42.970Z,40.00
2018-02-25T03:50:11.245Z,40.10
2018-02-25T03:52:38.742Z,40.00
2018-02-25T03:55:06.228Z,40.00
2018-02-25T03:57:33.714Z,40.20
2018-02-25T04:00:02.024Z,40.10
2018-02-25T04:02:29.513Z,40.10
2018-02-25T04:04:57.033Z,39.90
2018-02-25T04:07:24.538Z,39.60
2018-02-25T04:09:52.107Z,39.60
2018-02-25T04:12:19.619Z,39.30
2018-02-25T04:14:47.090Z,39.00
2018-02-25T04:17:14.610Z,39.20
2018-02-25T04:19:42.124Z,39.40
2018-02-25T04:22:09.602Z,40.20
2018-02-25T04:24:37.137Z,39.90
2018-02-25T04:27:04.646Z,39.90
2018-02-25T04:29:32.188Z,40.90
2018-02-25T04:32:00.502Z,41.40
2018-02-25T04:34:27.984Z,41.40
2018-02-25T04:36:55.462Z,40.30
2018-02-25T04:39:22.959Z,40.50
2018-02-25T04:41:50.449Z,41.30
2018-02-25T04:44:17.951Z,40.30
2018-02-25T04:46:46.203Z,41.20
2018-02-25T04:49:13.704Z,41.20
2018-02-25T04:51:41.978Z,41.00
2018-02-25T04:54:09.470Z,41.00
2018-02-25T04:56:36.973Z,40.80
2018-02-25T04:59:04.507Z,41.30
2018-02-25T05:01:32.012Z,40.90
2018-02-25T05:03:59.498Z,40.70
2018-02-25T05:06:26.979Z,41.20
2018-02-25T05:08:55.246Z,41.00
2018-02-25T05:11:22.786Z,41.00
2018-02-25T05:13:50.327Z,41.20
2018-02-25T05:16:17.888Z,41.40
2018-02-25T05:18:45.394Z,43.20
2018-02-25T05:21:13.666Z,41.40
2018-02-25T05:23:41.913Z,42.00
2018-02-25T05:26:09.430Z,41.30
2018-02-25T05:28:36.978Z,41.40
2018-02-25T05:31:04.480Z,42.10
2018-02-25T05:33:32.004Z,41.30
2018-02-25T05:35:59.530Z,41.60
2018-02-25T05:38:27.059Z,41.20
2018-02-25T05:40:54.577Z,41.20
2018-02-25T05:43:22.102Z,41.80
2018-02-25T05:45:50.390Z,42.30
2018-02-25T05:48:18.711Z,41.50
2018-02-25T05:50:46.960Z,42.00
2018-02-25T05:53:14.460Z,42.00
2018-02-25T05:55:41.977Z,41.60
2018-02-25T05:58:09.478Z,41.80
2018-02-25T06:00:36.985Z,43.10
2018-02-25T06:03:04.501Z,42.30
2018-02-25T06:05:32.007Z,43.10
2018-02-25T06:07:59.532Z,42.60
2018-02-25T06:10:27.847Z,42.40
2018-02-25T06:12:55.362Z,42.30
2018-02-25T06:15:23.638Z,42.30
2018-02-25T06:17:51.130Z,42.30
2018-02-25T06:20:18.631Z,42.20
2018-02-25T06:22:46.149Z,42.30
2018-02-25T06:25:13.725Z,42.50
2018-02-25T06:27:41.964Z,42.80
2018-02-25T06:30:09.462Z,42.80
2018-02-25T06:32:36.957Z,42.70
2018-02-25T06:35:04.448Z,42.60
2018-02-25T06:37:31.979Z,42.80
2018-02-25T06:40:00.279Z,43.20
2018-02-25T06:42:27.795Z,43.20
2018-02-25T06:44:55.265Z,43.20
2018-02-25T06:47:24.658Z,44.40
2018-02-25T06:49:53.047Z,42.50
2018-02-25T06:52:20.607Z,43.10
2018-02-25T06:54:48.295Z,41.20
2018-02-25T06:57:15.793Z,41.00
2018-02-25T06:59:43.294Z,40.70
2018-02-25T07:02:11.039Z,40.30
2018-02-25T07:04:38.623Z,40.80
2018-02-25T07:07:06.162Z,40.30
2018-02-25T07:09:33.662Z,39.80
2018-02-25T07:12:01.191Z,39.60
2018-02-25T07:14:28.740Z,39.60
2018-02-25T07:16:56.251Z,39.20
2018-02-25T07:19:23.781Z,39.10
2018-02-25T07:21:51.306Z,39.10
2018-02-25T07:24:19.593Z,38.80
2018-02-25T07:26:47.198Z,38.80
2018-02-25T07:29:14.818Z,39.00
2018-02-25T07:31:42.397Z,38.60
2018-02-25T07:34:09.923Z,38.50
2018-02-25T07:36:37.554Z,38.50
2018-02-25T07:39:05.109Z,38.70
2018-02-25T07:41:32.664Z,37.90
2018-02-25T07:44:00.236Z,38.40
2018-02-25T07:46:27.801Z,38.00
2018-02-25T07:48:56.243Z,37.90
2018-02-25T07:51:23.810Z,37.80
2018-02-25T07:53:51.320Z,38.00
2018-02-25T07:56:18.963Z,37.50
2018-02-25T07:58:53.642Z,37.40
2018-02-25T08:01:22.092Z,38.40
2018-02-25T08:03:49.808Z,38.30
2018-02-25T08:06:18.289Z,38.20
2018-02-25T08:08:46.744Z,38.20
2018-02-25T08:11:14.425Z,38.50
2018-02-25T08:13:42.166Z,38.20
2018-02-25T08:16:09.909Z,38.40
2018-02-25T08:18:38.211Z,38.20
2018-02-25T08:21:05.843Z,38.90
2018-02-25T08:23:33.591Z,38.00
2018-02-25T08:26:01.235Z,38.20
2018-02-25T08:28:31.971Z,38.20
2018-02-25T08:31:01.031Z,39.00
2018-02-25T08:33:28.697Z,39.00
2018-02-25T08:35:57.379Z,38.80
2018-02-25T08:38:25.008Z,38.80
2018-02-25T08:40:52.788Z,38.80
2018-02-25T08:43:20.383Z,38.00
2018-02-25T08:45:48.646Z,38.70
2018-02-25T08:48:16.150Z,38.40
2018-02-25T08:50:43.660Z,37.60
2018-02-25T08:53:11.241Z,36.50
2018-02-25T08:55:38.777Z,36.50
2018-02-25T08:58:07.171Z,34.40
2018-02-25T10:04:08.293Z,27.20
2018-02-25T10:06:36.582Z,27.00
2018-02-25T10:09:04.095Z,26.90
2018-02-25T10:11:31.579Z,25.70
2018-02-25T10:13:59.859Z,26.50
2018-02-25T10:16:27.360Z,26.50
2018-02-25T10:18:54.901Z,26.80
2018-02-25T10:21:22.377Z,27.20
2018-02-25T10:23:49.857Z,26.80
2018-02-25T10:26:17.359Z,27.30
2018-02-25T10:28:44.876Z,27.10
2018-02-25T10:31:12.402Z,27.10
2018-02-25T10:33:39.893Z,26.10
2018-02-25T10:36:07.441Z,26.40
2018-02-25T10:38:34.981Z,24.80
2018-02-25T10:41:02.487Z,26.30
2018-02-25T10:43:29.982Z,26.10
2018-02-25T10:45:57.444Z,27.20
2018-02-25T10:48:24.954Z,27.60
2018-02-25T10:50:53.219Z,27.60
2018-02-25T10:53:20.738Z,27.60
2018-02-25T10:55:48.233Z,28.60
2018-02-25T10:58:16.512Z,26.70
2018-02-25T11:00:49.596Z,26.70
2018-02-25T11:03:17.129Z,27.50
2018-02-25T11:05:44.623Z,27.60
2018-02-25T11:08:13.382Z,27.50
2018-02-25T11:10:40.896Z,27.50
2018-02-25T11:13:08.402Z,28.90
2018-02-25T11:15:36.018Z,31.40
2018-02-25T11:18:03.492Z,31.00
2018-02-25T11:20:30.989Z,30.00
2018-02-25T11:22:59.274Z,29.80
2018-02-25T11:25:27.540Z,31.20
2018-02-25T11:27:55.861Z,30.30
2018-02-25T11:30:23.364Z,30.10
2018-02-25T11:32:50.863Z,30.50
2018-02-25T11:35:18.383Z,30.40
2018-02-25T11:37:46.679Z,31.10
2018-02-25T11:40:14.235Z,31.10
2018-02-25T11:42:41.752Z,31.60
2018-02-25T11:45:09.250Z,32.30
2018-02-25T11:47:36.809Z,32.40
2018-02-25T11:50:04.301Z,32.60
2018-02-25T11:52:31.850Z,32.40
2018-02-25T11:54:59.395Z,32.50
2018-02-25T11:57:26.941Z,32.50
2018-02-25T11:59:54.487Z,32.60
2018-02-25T12:02:22.012Z,32.60
2018-02-25T12:04:49.513Z,32.70
2018-02-25T12:07:17.039Z,32.70
2018-02-25T12:09:44.542Z,32.80
2018-02-25T12:12:12.031Z,33.00
2018-02-25T12:14:39.675Z,33.00
2018-02-25T12:17:07.189Z,33.10
2018-02-25T12:19:35.443Z,33.20
2018-02-25T12:22:02.938Z,33.10
2018-02-25T12:24:30.480Z,33.20
2018-02-25T12:26:57.986Z,33.40
2018-02-25T12:29:25.502Z,33.40
2018-02-25T12:31:53.775Z,33.40
2018-02-25T12:34:21.301Z,33.40
2018-02-25T12:36:48.817Z,33.60
2018-02-25T12:39:16.290Z,33.70
2018-02-25T12:41:43.795Z,33.70
2018-02-25T12:44:12.082Z,33.80
2018-02-25T12:46:39.728Z,33.80
2018-02-25T12:49:07.254Z,33.80
2018-02-25T12:51:34.779Z,34.10
2018-02-25T12:54:02.258Z,34.00
2018-02-25T12:56:29.783Z,33.90
2018-02-25T12:58:57.320Z,33.90
2018-02-25T13:01:25.567Z,34.30
2018-02-25T13:03:53.110Z,34.30
2018-02-25T13:06:20.657Z,34.40
2018-02-25T13:08:48.129Z,34.40
2018-02-25T13:11:15.626Z,34.50
2018-02-25T13:13:43.114Z,34.40
2018-02-25T13:16:10.652Z,34.20
2018-02-25T13:18:38.193Z,34.30
2018-02-25T13:21:05.760Z,34.20
2018-02-25T13:23:33.282Z,34.10
2018-02-25T13:26:00.785Z,34.00
2018-02-25T13:28:28.303Z,34.50
2018-02-25T13:30:55.839Z,33.90
2018-02-25T13:33:23.351Z,33.90
2018-02-25T13:35:50.851Z,34.00
2018-02-25T13:38:18.347Z,33.80
2018-02-25T13:40:45.830Z,33.60
2018-02-25T13:43:13.331Z,33.70
2018-02-25T13:45:40.847Z,33.60
2018-02-25T13:48:08.397Z,33.60
2018-02-25T13:50:35.923Z,33.50
2018-02-25T13:53:03.433Z,33.60
2018-02-25T13:55:30.915Z,33.50
2018-02-25T13:57:58.993Z,33.40
2018-02-25T14:00:26.500Z,33.50
2018-02-25T14:02:54.755Z,33.40
2018-02-25T14:05:22.233Z,33.40
2018-02-25T14:07:49.738Z,33.30
2018-02-25T14:10:17.235Z,33.60
2018-02-25T14:12:45.510Z,33.60
2018-02-25T14:15:13.073Z,33.50
2018-02-25T14:17:40.595Z,33.80
2018-02-25T14:20:08.118Z,99.90
